Time;durP1;ratioP1;P1;durP2;ratioP2;P2;SDS_P1;SDS_P2;PMS_P1;PMS_P2;Temp;Humidity;BMP_temperature;BMP_pressure;BME280_temperature;BME280_humidity;BME280_pressure;Samples;Min_cycle;Max_cycle;Signal;HPM_P1;HPM_P2
2022/10/19 00:01:14;;;;;;;;;;;11.00;99.90;;;;;;6115937;23;19929;-68
2022/10/19 00:03:40;;;;;;;;;;;11.00;99.90;;;;;;6116460;23;19925;-68
2022/10/19 00:06:15;;;;;;;;;;;11.00;99.90;;;;;;6115955;23;20000;-67
2022/10/19 00:08:41;;;;;;;;;;;11.00;99.90;;;;;;6116259;23;19925;-68
2022/10/19 00:11:06;;;;;;;;;;;11.10;99.90;;;;;;6116077;23;19932;-65
2022/10/19 00:13:32;;;;;;;;;;;11.00;99.90;;;;;;6115193;23;19928;-66
2022/10/19 00:15:58;;;;;;;;;;;11.00;99.90;;;;;;6116197;23;19925;-66
2022/10/19 00:18:23;;;;;;;;;;;11.10;99.90;;;;;;6115610;23;19924;-66
2022/10/19 00:20:49;;;;;;;;;;;11.00;99.90;;;;;;6115909;23;19921;-66
2022/10/19 00:23:14;;;;;;;;;;;11.00;99.90;;;;;;6115793;23;20000;-65
2022/10/19 00:25:40;;;;;;;;;;;11.00;99.90;;;;;;6116010;23;19925;-65
2022/10/19 00:28:05;;;;;;;;;;;11.00;99.90;;;;;;6116814;23;19935;-65
2022/10/19 00:30:31;;;;;;;;;;;10.90;99.90;;;;;;6115185;23;20342;-66
2022/10/19 00:36:21;;;;;;;;;;;11.00;99.90;;;;;;6111087;23;19961;-66
2022/10/19 00:38:47;;;;;;;;;;;11.00;99.90;;;;;;6112229;23;19925;-65
2022/10/19 00:41:13;;;;;;;;;;;11.00;99.90;;;;;;6113742;23;19932;-66
2022/10/19 00:43:58;;;;;;;;;;;11.00;99.90;;;;;;6113820;23;19924;-66
2022/10/19 00:46:24;;;;;;;;;;;11.00;99.90;;;;;;6115252;23;20334;-65
2022/10/19 00:48:53;;;;;;;;;;;11.10;99.90;;;;;;6114254;23;20397;-65
2022/10/19 00:51:19;;;;;;;;;;;11.10;99.90;;;;;;6114005;23;20443;-65
2022/10/19 00:53:44;;;;;;;;;;;11.10;99.90;;;;;;6115451;23;19925;-65
2022/10/19 00:56:11;;;;;;;;;;;11.10;99.90;;;;;;6114654;23;20455;-66
2022/10/19 00:58:37;;;;;;;;;;;11.10;99.90;;;;;;6113701;23;19925;-66
2022/10/19 01:01:04;;;;;;;;;;;11.10;99.90;;;;;;6115449;23;19970;-66
2022/10/19 01:03:30;;;;;;;;;;;11.10;99.90;;;;;;6115593;23;19951;-66
2022/10/19 01:05:56;;;;;;;;;;;11.20;99.90;;;;;;6115723;23;19948;-66
2022/10/19 01:08:22;;;;;;;;;;;11.10;99.90;;;;;;6114971;23;20355;-66
2022/10/19 01:11:06;;;;;;;;;;;11.20;99.90;;;;;;6115516;23;20252;-63
2022/10/19 01:13:34;;;;;;;;;;;11.20;99.90;;;;;;6115862;23;20333;-64
2022/10/19 01:16:04;;;;;;;;;;;11.20;99.90;;;;;;6115822;23;19987;-64
2022/10/19 01:18:40;;;;;;;;;;;11.20;99.90;;;;;;6115443;23;19933;-65
2022/10/19 01:21:08;;;;;;;;;;;11.20;99.90;;;;;;6115400;23;20008;-65
2022/10/19 01:23:34;;;;;;;;;;;11.20;99.90;;;;;;6115164;23;19928;-64
2022/10/19 01:26:18;;;;;;;;;;;9.40;99.90;;;;;;6116079;23;19970;-64
2022/10/19 01:29:04;;;;;;;;;;;11.20;99.90;;;;;;6115465;23;19925;-64
2022/10/19 01:31:48;;;;;;;;;;;11.20;99.90;;;;;;6114927;23;19925;-64
2022/10/19 01:34:18;;;;;;;;;;;11.20;99.90;;;;;;6115554;23;19970;-63
2022/10/19 01:36:43;;;;;;;;;;;11.20;99.90;;;;;;6114898;23;19925;-63
2022/10/19 01:39:18;;;;;;;;;;;11.30;99.90;;;;;;6115580;23;19955;-64
2022/10/19 01:41:50;;;;;;;;;;;11.20;99.90;;;;;;6115212;23;20007;-67
2022/10/19 01:44:20;;;;;;;;;;;11.30;99.90;;;;;;6115538;23;19929;-65
2022/10/19 01:46:51;;;;;;;;;;;11.20;99.90;;;;;;6115303;23;20359;-66
2022/10/19 01:49:55;;;;;;;;;;;11.20;99.90;;;;;;6115582;23;20021;-66
2022/10/19 01:52:22;;;;;;;;;;;11.20;99.90;;;;;;6145773;23;19925;-66
2022/10/19 01:54:49;;;;;;;;;;;11.20;99.90;;;;;;6145659;23;19987;-66
2022/10/19 01:57:18;;;;;;;;;;;11.30;99.90;;;;;;6130055;23;20042;-66
2022/10/19 01:59:44;;;;;;;;;;;11.30;99.90;;;;;;6115651;23;19979;-65
2022/10/19 02:02:10;;;;;;;;;;;11.30;99.90;;;;;;6113483;23;19929;-64
2022/10/19 02:04:37;;;;;;;;;;;11.40;99.90;;;;;;6114958;23;20394;-67
2022/10/19 02:07:03;;;;;;;;;;;11.30;99.90;;;;;;6114880;23;19979;-67
2022/10/19 02:09:29;;;;;;;;;;;11.30;99.90;;;;;;6115465;23;20323;-67
2022/10/19 02:11:57;;;;;;;;;;;11.30;99.90;;;;;;6115400;23;20320;-65
2022/10/19 02:14:24;;;;;;;;;;;11.30;99.90;;;;;;6110902;23;19925;-67
2022/10/19 02:16:53;;;;;;;;;;;11.50;99.90;;;;;;6115023;23;20236;-68
2022/10/19 02:19:19;;;;;;;;;;;11.30;99.90;;;;;;6114790;23;20430;-67
2022/10/19 02:21:45;;;;;;;;;;;11.30;99.90;;;;;;6114968;23;19928;-68
2022/10/19 02:24:11;;;;;;;;;;;11.30;99.90;;;;;;6114466;23;19924;-64
2022/10/19 02:26:37;;;;;;;;;;;11.30;99.90;;;;;;6114984;23;19925;-66
2022/10/19 02:29:02;;;;;;;;;;;11.30;99.90;;;;;;6114990;23;19948;-67
2022/10/19 02:31:28;;;;;;;;;;;11.30;99.90;;;;;;6114322;23;19928;-63
2022/10/19 02:33:54;;;;;;;;;;;11.30;99.90;;;;;;6114933;23;19949;-67
2022/10/19 02:36:19;;;;;;;;;;;11.30;99.90;;;;;;6113958;23;19925;-65
2022/10/19 02:38:45;;;;;;;;;;;11.30;99.90;;;;;;6114882;23;19936;-67
2022/10/19 02:41:14;;;;;;;;;;;11.30;99.90;;;;;;6115314;23;20348;-67
2022/10/19 02:43:41;;;;;;;;;;;11.30;99.90;;;;;;6114241;23;19924;-65
2022/10/19 02:46:11;;;;;;;;;;;11.30;99.90;;;;;;6115687;23;19948;-65
2022/10/19 02:48:37;;;;;;;;;;;11.30;99.90;;;;;;6114850;23;19932;-68
2022/10/19 02:51:03;;;;;;;;;;;11.20;99.90;;;;;;6115557;23;19925;-66
2022/10/19 02:53:28;;;;;;;;;;;11.20;99.90;;;;;;6115469;23;20252;-66
2022/10/19 02:55:54;;;;;;;;;;;11.10;99.90;;;;;;6114341;23;19996;-65
2022/10/19 02:58:20;;;;;;;;;;;11.10;99.90;;;;;;6115134;23;20324;-65
2022/10/19 03:00:45;;;;;;;;;;;10.90;99.90;;;;;;6115165;23;19979;-65
2022/10/19 03:03:11;;;;;;;;;;;11.00;99.90;;;;;;6113475;23;20003;-65
2022/10/19 03:05:36;;;;;;;;;;;10.90;99.90;;;;;;6115631;23;19924;-65
2022/10/19 03:08:02;;;;;;;;;;;10.80;99.90;;;;;;6114857;23;20004;-67
2022/10/19 03:10:27;;;;;;;;;;;10.70;99.90;;;;;;6114732;23;19924;-67
2022/10/19 03:12:55;;;;;;;;;;;10.60;99.90;;;;;;6114679;23;19924;-66
2022/10/19 03:15:23;;;;;;;;;;;10.50;99.90;;;;;;6115462;23;19924;-63
2022/10/19 03:17:51;;;;;;;;;;;10.50;99.90;;;;;;6115444;23;20259;-63
2022/10/19 03:20:17;;;;;;;;;;;10.40;99.90;;;;;;6114108;23;19924;-64
2022/10/19 03:22:42;;;;;;;;;;;10.30;99.90;;;;;;6115135;23;19932;-64
2022/10/19 03:25:08;;;;;;;;;;;10.20;99.90;;;;;;6114994;23;19925;-66
2022/10/19 03:27:33;;;;;;;;;;;10.10;99.90;;;;;;6114924;23;19971;-64
2022/10/19 03:29:59;;;;;;;;;;;10.00;99.90;;;;;;6115203;23;20434;-64
2022/10/19 03:32:24;;;;;;;;;;;10.00;99.90;;;;;;6114470;23;19929;-63
2022/10/19 03:34:50;;;;;;;;;;;9.90;99.90;;;;;;6114970;23;19929;-65
2022/10/19 03:37:15;;;;;;;;;;;9.90;99.90;;;;;;6114596;23;19925;-65
2022/10/19 03:39:41;;;;;;;;;;;9.90;99.90;;;;;;6114922;23;19925;-65
2022/10/19 03:42:06;;;;;;;;;;;9.80;99.90;;;;;;6112923;23;19932;-65
2022/10/19 03:44:32;;;;;;;;;;;9.80;99.90;;;;;;6114543;23;19925;-65
2022/10/19 03:46:57;;;;;;;;;;;9.70;99.90;;;;;;6114035;23;19947;-66
2022/10/19 03:49:23;;;;;;;;;;;10.10;99.90;;;;;;6115960;23;19925;-66
2022/10/19 03:51:48;;;;;;;;;;;9.70;99.90;;;;;;6116673;23;20324;-65
2022/10/19 03:54:15;;;;;;;;;;;9.70;99.90;;;;;;6113000;23;20339;-65
2022/10/19 03:56:41;;;;;;;;;;;9.70;99.90;;;;;;6114927;23;20431;-66
2022/10/19 03:59:06;;;;;;;;;;;9.70;99.90;;;;;;6115918;23;19932;-66
2022/10/19 04:01:38;;;;;;;;;;;9.70;99.90;;;;;;6115299;23;19925;-64
2022/10/19 04:04:05;;;;;;;;;;;9.80;99.90;;;;;;6115694;23;19964;-64
2022/10/19 04:06:32;;;;;;;;;;;9.70;99.90;;;;;;6114855;23;20387;-64
2022/10/19 04:08:58;;;;;;;;;;;9.70;99.90;;;;;;6115537;23;19970;-65
2022/10/19 04:11:25;;;;;;;;;;;9.70;99.90;;;;;;6115644;23;19964;-65
2022/10/19 04:13:51;;;;;;;;;;;9.70;99.90;;;;;;6115196;23;19988;-65
2022/10/19 04:16:17;;;;;;;;;;;9.70;99.90;;;;;;6116159;23;19925;-65
2022/10/19 04:18:43;;;;;;;;;;;9.80;99.90;;;;;;6116300;23;19932;-63
2022/10/19 04:21:18;;;;;;;;;;;9.80;99.90;;;;;;6115385;23;19925;-63
2022/10/19 04:23:43;;;;;;;;;;;9.80;99.90;;;;;;6116106;23;19925;-64
2022/10/19 04:26:09;;;;;;;;;;;9.80;99.90;;;;;;6115789;23;19929;-64
2022/10/19 04:28:34;;;;;;;;;;;9.80;99.90;;;;;;6114302;23;19929;-63
2022/10/19 04:31:00;;;;;;;;;;;9.80;99.90;;;;;;6115071;23;19925;-65
2022/10/19 04:33:26;;;;;;;;;;;10.10;99.90;;;;;;6113312;23;19978;-65
2022/10/19 04:35:56;;;;;;;;;;;9.80;99.90;;;;;;6114264;23;19929;-64
2022/10/19 04:38:22;;;;;;;;;;;9.80;99.90;;;;;;6113927;23;19925;-63
2022/10/19 04:40:47;;;;;;;;;;;9.80;99.90;;;;;;6114158;23;20296;-63
2022/10/19 04:43:13;;;;;;;;;;;9.80;99.90;;;;;;6111787;23;19932;-63
2022/10/19 04:45:38;;;;;;;;;;;9.80;99.90;;;;;;6115537;23;19924;-63
2022/10/19 04:48:04;;;;;;;;;;;9.80;99.90;;;;;;6115953;23;19929;-63
2022/10/19 04:50:30;;;;;;;;;;;9.80;99.90;;;;;;6115502;23;19978;-64
2022/10/19 04:52:55;;;;;;;;;;;9.90;99.90;;;;;;6113879;23;20232;-63
2022/10/19 04:55:21;;;;;;;;;;;9.80;99.90;;;;;;6115719;23;20297;-63
2022/10/19 04:57:46;;;;;;;;;;;9.90;99.90;;;;;;6115446;23;20379;-63
2022/10/19 05:00:12;;;;;;;;;;;9.90;99.90;;;;;;6115565;23;20221;-63
2022/10/19 05:02:41;;;;;;;;;;;9.90;99.90;;;;;;6114808;23;20228;-65
2022/10/19 05:05:07;;;;;;;;;;;9.90;99.90;;;;;;6116281;23;20000;-63
2022/10/19 05:07:32;;;;;;;;;;;10.00;99.90;;;;;;6114467;23;20002;-63
2022/10/19 05:09:58;;;;;;;;;;;10.00;99.90;;;;;;6115800;23;19925;-62
2022/10/19 05:12:23;;;;;;;;;;;10.00;99.90;;;;;;6115764;23;20352;-63
2022/10/19 05:14:49;;;;;;;;;;;10.00;99.90;;;;;;6115164;23;19925;-63
2022/10/19 05:17:14;;;;;;;;;;;10.00;99.90;;;;;;6115461;23;19929;-63
2022/10/19 05:19:41;;;;;;;;;;;10.00;99.90;;;;;;6115335;23;19925;-63
2022/10/19 05:22:07;;;;;;;;;;;10.10;99.90;;;;;;6115324;23;20328;-63
2022/10/19 05:24:32;;;;;;;;;;;10.00;99.90;;;;;;6115770;23;19944;-63
2022/10/19 05:26:58;;;;;;;;;;;10.00;99.90;;;;;;6115038;23;20302;-63
2022/10/19 05:29:23;;;;;;;;;;;10.00;99.90;;;;;;6114192;23;19925;-63
2022/10/19 05:31:49;;;;;;;;;;;10.00;99.90;;;;;;6116146;23;19925;-63
2022/10/19 05:34:15;;;;;;;;;;;10.10;99.90;;;;;;6115110;23;19928;-63
2022/10/19 05:36:40;;;;;;;;;;;10.10;99.90;;;;;;6115697;23;19925;-64
2022/10/19 05:39:07;;;;;;;;;;;10.10;99.90;;;;;;6114766;23;19978;-63
2022/10/19 05:41:33;;;;;;;;;;;10.10;99.90;;;;;;6115888;23;19925;-64
2022/10/19 05:43:59;;;;;;;;;;;10.10;99.90;;;;;;6115512;23;19925;-63
2022/10/19 05:46:26;;;;;;;;;;;10.10;99.90;;;;;;6115346;23;19951;-64
2022/10/19 05:48:53;;;;;;;;;;;10.20;99.90;;;;;;6115161;23;20392;-63
2022/10/19 05:51:19;;;;;;;;;;;10.20;99.90;;;;;;6112512;23;19948;-64
2022/10/19 05:53:45;;;;;;;;;;;10.20;99.90;;;;;;6115695;23;19929;-65
2022/10/19 05:56:16;;;;;;;;;;;10.20;99.90;;;;;;6115318;23;19932;-65
2022/10/19 05:58:42;;;;;;;;;;;10.20;99.90;;;;;;6115338;23;19960;-66
2022/10/19 06:01:08;;;;;;;;;;;10.30;99.90;;;;;;6113157;23;19932;-66
2022/10/19 06:03:34;;;;;;;;;;;10.30;99.90;;;;;;6110910;23;19954;-65
2022/10/19 06:06:01;;;;;;;;;;;10.30;99.90;;;;;;6113905;23;19996;-64
2022/10/19 06:08:26;;;;;;;;;;;10.30;99.90;;;;;;6114260;23;19968;-66
2022/10/19 06:10:52;;;;;;;;;;;10.30;99.90;;;;;;6113859;23;20295;-65
2022/10/19 06:13:18;;;;;;;;;;;10.30;99.90;;;;;;6114506;23;19924;-66
2022/10/19 06:15:48;;;;;;;;;;;10.40;99.90;;;;;;6111175;23;21467;-63
2022/10/19 06:18:14;;;;;;;;;;;10.40;99.90;;;;;;6114408;23;19979;-63
2022/10/19 06:20:41;;;;;;;;;;;10.40;99.90;;;;;;6112923;23;19925;-63
2022/10/19 06:23:07;;;;;;;;;;;10.50;99.90;;;;;;6114907;23;19924;-63
2022/10/19 06:25:33;;;;;;;;;;;10.50;99.90;;;;;;6114603;23;20239;-64
2022/10/19 06:27:59;;;;;;;;;;;10.50;99.90;;;;;;6114968;23;20692;-64
2022/10/19 06:30:24;;;;;;;;;;;10.60;99.90;;;;;;6114562;23;20367;-64
2022/10/19 06:32:50;;;;;;;;;;;10.60;99.90;;;;;;6114433;23;20217;-64
2022/10/19 06:35:16;;;;;;;;;;;10.60;99.90;;;;;;6113501;23;19929;-63
2022/10/19 06:37:41;;;;;;;;;;;10.60;99.90;;;;;;6114735;23;19931;-62
2022/10/19 06:40:08;;;;;;;;;;;10.70;99.90;;;;;;6114231;23;19925;-63
2022/10/19 06:42:33;;;;;;;;;;;10.70;99.90;;;;;;6114970;23;19924;-63
2022/10/19 06:44:59;;;;;;;;;;;10.80;99.90;;;;;;6114540;23;20064;-64
2022/10/19 06:47:29;;;;;;;;;;;10.90;99.90;;;;;;6114411;23;19948;-63
2022/10/19 06:49:56;;;;;;;;;;;10.90;99.90;;;;;;6114774;23;19935;-65
2022/10/19 06:52:21;;;;;;;;;;;11.00;99.90;;;;;;6114014;23;19925;-63
2022/10/19 06:54:47;;;;;;;;;;;10.90;99.90;;;;;;6112555;23;20340;-67
2022/10/19 06:57:12;;;;;;;;;;;11.00;99.90;;;;;;6114526;23;20050;-64
2022/10/19 06:59:38;;;;;;;;;;;11.00;99.90;;;;;;6113395;23;19956;-65
2022/10/19 07:02:03;;;;;;;;;;;11.00;99.90;;;;;;6113909;23;19947;-63
2022/10/19 07:04:29;;;;;;;;;;;11.10;99.90;;;;;;6111694;23;19932;-65
2022/10/19 07:06:54;;;;;;;;;;;11.10;99.90;;;;;;6114422;23;20332;-64
2022/10/19 07:09:21;;;;;;;;;;;11.20;99.90;;;;;;6114337;23;19931;-65
2022/10/19 07:11:47;;;;;;;;;;;11.20;99.90;;;;;;6114373;23;19929;-65
2022/10/19 07:14:12;;;;;;;;;;;11.20;99.90;;;;;;6114628;23;20005;-64
2022/10/19 07:16:38;;;;;;;;;;;11.30;99.90;;;;;;6114120;23;19983;-66
2022/10/19 07:19:03;;;;;;;;;;;11.30;99.90;;;;;;6114761;23;19963;-67
2022/10/19 07:21:29;;;;;;;;;;;11.40;99.90;;;;;;6114338;23;19925;-68
2022/10/19 07:23:54;;;;;;;;;;;11.40;99.90;;;;;;6116074;23;20350;-64
2022/10/19 07:26:22;;;;;;;;;;;11.50;99.90;;;;;;6114061;23;20041;-65
2022/10/19 07:28:48;;;;;;;;;;;11.50;99.90;;;;;;6115788;23;19925;-67
2022/10/19 07:31:19;;;;;;;;;;;11.80;99.90;;;;;;6111763;23;19948;-64
2022/10/19 07:33:45;;;;;;;;;;;11.70;99.90;;;;;;6115209;23;19931;-64
2022/10/19 07:36:12;;;;;;;;;;;11.80;99.90;;;;;;6115260;23;19929;-64
2022/10/19 07:38:38;;;;;;;;;;;11.80;99.90;;;;;;6115341;23;19991;-65
2022/10/19 07:41:04;;;;;;;;;;;11.90;99.90;;;;;;6113653;23;20319;-64
2022/10/19 07:43:30;;;;;;;;;;;12.00;99.90;;;;;;6115390;23;20298;-64
2022/10/19 07:45:59;;;;;;;;;;;12.10;99.90;;;;;;6113107;23;19936;-64
2022/10/19 07:48:25;;;;;;;;;;;12.20;99.90;;;;;;6115266;23;19924;-63
2022/10/19 07:50:50;;;;;;;;;;;12.10;99.90;;;;;;6114638;23;19932;-63
2022/10/19 07:53:16;;;;;;;;;;;13.70;99.90;;;;;;6115025;23;19924;-64
2022/10/19 07:55:41;;;;;;;;;;;12.30;99.90;;;;;;6115676;23;19925;-64
2022/10/19 07:58:07;;;;;;;;;;;12.30;99.90;;;;;;6114981;23;20327;-64
2022/10/19 08:00:32;;;;;;;;;;;12.40;99.90;;;;;;6115266;23;20242;-66
2022/10/19 08:02:58;;;;;;;;;;;12.40;99.90;;;;;;6115354;23;19925;-64
2022/10/19 08:05:23;;;;;;;;;;;12.60;99.90;;;;;;6113926;23;19933;-63
2022/10/19 08:07:49;;;;;;;;;;;12.50;99.90;;;;;;6116380;23;19925;-64
2022/10/19 08:10:15;;;;;;;;;;;12.60;99.90;;;;;;6114985;23;19925;-65
2022/10/19 08:12:40;;;;;;;;;;;12.60;99.90;;;;;;6114552;23;19929;-65
2022/10/19 08:15:06;;;;;;;;;;;12.60;99.90;;;;;;6108879;23;19929;-65
2022/10/19 08:17:35;;;;;;;;;;;12.60;99.90;;;;;;6114885;23;19925;-64
2022/10/19 08:20:02;;;;;;;;;;;12.80;99.90;;;;;;6115775;23;20002;-65
2022/10/19 08:22:27;;;;;;;;;;;12.90;99.90;;;;;;6114512;23;20364;-64
2022/10/19 08:24:53;;;;;;;;;;;13.10;99.90;;;;;;6115167;23;20261;-65
2022/10/19 08:27:19;;;;;;;;;;;13.10;99.90;;;;;;6115080;23;20328;-64
2022/10/19 08:29:44;;;;;;;;;;;13.10;99.90;;;;;;6115633;23;19925;-65
2022/10/19 08:32:10;;;;;;;;;;;13.30;99.90;;;;;;6115632;23;19936;-65
2022/10/19 08:34:35;;;;;;;;;;;13.40;99.90;;;;;;6114351;23;19953;-65
2022/10/19 08:37:02;;;;;;;;;;;13.30;99.90;;;;;;6115879;23;19925;-64
2022/10/19 08:39:27;;;;;;;;;;;13.40;99.90;;;;;;6116133;23;19924;-64
2022/10/19 08:41:56;;;;;;;;;;;13.40;99.90;;;;;;6113089;23;20225;-66
2022/10/19 08:44:41;;;;;;;;;;;13.40;99.90;;;;;;6115524;23;19928;-63
2022/10/19 08:47:27;;;;;;;;;;;13.40;99.90;;;;;;6113504;23;19951;-66
2022/10/19 08:49:54;;;;;;;;;;;13.40;99.90;;;;;;6113803;23;19925;-65
2022/10/19 08:52:30;;;;;;;;;;;13.50;99.90;;;;;;6113558;23;19936;-65
2022/10/19 08:55:00;;;;;;;;;;;13.50;99.90;;;;;;6114663;23;19936;-66
2022/10/19 08:57:29;;;;;;;;;;;13.70;99.90;;;;;;6115550;23;20399;-65
2022/10/19 08:59:58;;;;;;;;;;;13.60;99.90;;;;;;6114992;23;19964;-65
2022/10/19 09:02:36;;;;;;;;;;;13.70;99.90;;;;;;6114399;23;19953;-65
2022/10/19 09:05:12;;;;;;;;;;;13.80;99.90;;;;;;6114140;23;20329;-65
2022/10/19 09:07:44;;;;;;;;;;;13.70;99.90;;;;;;6115104;23;19924;-65
2022/10/19 09:10:17;;;;;;;;;;;13.70;99.90;;;;;;6114606;23;19952;-66
2022/10/19 09:12:49;;;;;;;;;;;13.60;99.90;;;;;;6115798;23;19951;-67
2022/10/19 09:15:17;;;;;;;;;;;13.70;99.90;;;;;;6114540;23;19986;-66
2022/10/19 09:17:42;;;;;;;;;;;13.80;99.90;;;;;;6115507;23;19925;-65
2022/10/19 09:20:28;;;;;;;;;;;13.80;99.90;;;;;;6115998;23;19932;-63
2022/10/19 09:23:06;;;;;;;;;;;13.90;99.90;;;;;;6115184;23;19925;-65
2022/10/19 09:25:32;;;;;;;;;;;14.00;99.90;;;;;;6115143;23;19983;-64
2022/10/19 09:28:02;;;;;;;;;;;14.00;99.90;;;;;;6115648;23;19932;-64
2022/10/19 09:30:29;;;;;;;;;;;14.10;99.90;;;;;;6114741;23;19961;-64
2022/10/19 09:32:59;;;;;;;;;;;14.20;99.90;;;;;;6115682;23;20006;-65
2022/10/19 09:35:30;;;;;;;;;;;14.10;99.90;;;;;;6115095;23;19932;-64
2022/10/19 09:37:56;;;;;;;;;;;14.10;99.90;;;;;;6112986;23;19929;-65
2022/10/19 09:40:23;;;;;;;;;;;14.30;99.90;;;;;;6115230;23;19932;-65
2022/10/19 09:43:01;;;;;;;;;;;14.40;99.90;;;;;;6114290;23;20402;-65
2022/10/19 09:45:46;;;;;;;;;;;14.60;99.90;;;;;;6113712;23;19924;-66
2022/10/19 09:48:38;;;;;;;;;;;14.70;99.90;;;;;;6113408;23;19929;-67
2022/10/19 09:51:09;;;;;;;;;;;14.90;99.90;;;;;;6116649;23;19925;-65
2022/10/19 09:53:35;;;;;;;;;;;14.80;99.90;;;;;;6115460;23;19932;-66
2022/10/19 09:56:07;;;;;;;;;;;14.90;99.90;;;;;;6115105;23;20248;-66
2022/10/19 09:58:33;;;;;;;;;;;15.00;99.90;;;;;;6115210;23;19960;-64
2022/10/19 10:01:00;;;;;;;;;;;15.20;99.90;;;;;;6115065;23;19932;-64
2022/10/19 10:03:27;;;;;;;;;;;15.40;99.90;;;;;;6115520;23;19970;-64
2022/10/19 10:05:54;;;;;;;;;;;15.40;99.90;;;;;;6115150;23;19959;-64
2022/10/19 10:08:21;;;;;;;;;;;15.30;99.90;;;;;;6113900;23;20054;-64
2022/10/19 10:10:52;;;;;;;;;;;15.30;99.90;;;;;;6114866;23;19924;-65
2022/10/19 10:13:19;;;;;;;;;;;15.30;99.90;;;;;;6115072;23;19925;-64
2022/10/19 10:15:49;;;;;;;;;;;15.30;99.90;;;;;;6115868;23;20012;-64
2022/10/19 10:18:16;;;;;;;;;;;15.40;99.90;;;;;;6114200;23;19948;-63
2022/10/19 10:20:56;;;;;;;;;;;15.10;99.90;;;;;;6113854;23;19925;-63
2022/10/19 10:23:23;;;;;;;;;;;15.10;99.90;;;;;;6114461;23;19925;-63
2022/10/19 10:25:49;;;;;;;;;;;14.90;99.90;;;;;;6115217;23;19932;-65
2022/10/19 10:28:19;;;;;;;;;;;14.80;99.90;;;;;;6114843;23;19925;-65
2022/10/19 10:30:45;;;;;;;;;;;14.70;99.90;;;;;;6116192;23;19925;-64
2022/10/19 10:33:24;;;;;;;;;;;14.50;99.90;;;;;;6115997;23;19924;-65
2022/10/19 10:35:52;;;;;;;;;;;14.50;99.90;;;;;;6115893;23;19925;-65
2022/10/19 10:38:23;;;;;;;;;;;14.50;99.90;;;;;;6115014;23;20299;-65
2022/10/19 10:40:59;;;;;;;;;;;14.60;99.90;;;;;;6115435;23;19971;-64
2022/10/19 10:43:28;;;;;;;;;;;14.90;99.90;;;;;;6114497;23;19952;-64
2022/10/19 10:45:58;;;;;;;;;;;15.00;99.90;;;;;;6114640;23;19925;-65
2022/10/19 10:48:24;;;;;;;;;;;15.10;99.90;;;;;;6114103;23;19968;-66
2022/10/19 10:50:50;;;;;;;;;;;15.20;99.90;;;;;;6114659;23;19932;-65
2022/10/19 10:53:28;;;;;;;;;;;15.40;99.90;;;;;;6114369;23;19929;-66
2022/10/19 10:55:55;;;;;;;;;;;15.40;99.90;;;;;;6114221;23;20332;-66
2022/10/19 10:58:30;;;;;;;;;;;15.50;99.90;;;;;;6118094;23;20008;-66
2022/10/19 11:01:00;;;;;;;;;;;15.50;99.90;;;;;;6118350;23;19929;-66
2022/10/19 11:03:27;;;;;;;;;;;15.40;99.90;;;;;;6117981;23;19991;-65
2022/10/19 11:05:56;;;;;;;;;;;15.20;99.90;;;;;;6117977;23;20267;-64
2022/10/19 11:08:26;;;;;;;;;;;15.20;99.90;;;;;;6118489;23;19970;-64
2022/10/19 11:10:57;;;;;;;;;;;15.20;99.90;;;;;;6117070;23;19995;-64
2022/10/19 11:13:29;;;;;;;;;;;15.20;99.90;;;;;;6117608;23;20008;-64
2022/10/19 11:15:57;;;;;;;;;;;15.30;99.90;;;;;;6116297;23;19925;-64
2022/10/19 11:18:36;;;;;;;;;;;15.30;99.90;;;;;;6105747;23;20307;-67
2022/10/19 11:21:10;;;;;;;;;;;15.50;99.90;;;;;;6116427;23;19925;-66
2022/10/19 11:23:41;;;;;;;;;;;15.80;99.90;;;;;;6117000;23;20405;-65
2022/10/19 11:26:17;;;;;;;;;;;15.90;99.90;;;;;;6116315;23;19975;-65
2022/10/19 11:28:54;;;;;;;;;;;16.20;99.90;;;;;;6115874;23;19992;-65
2022/10/19 11:31:23;;;;;;;;;;;16.10;99.90;;;;;;6116115;23;20414;-64
2022/10/19 11:34:06;;;;;;;;;;;16.50;99.90;;;;;;6116577;23;19960;-63
2022/10/19 11:36:32;;;;;;;;;;;16.70;99.90;;;;;;6116405;23;20125;-66
2022/10/19 11:39:11;;;;;;;;;;;17.00;99.90;;;;;;6117018;23;19986;-68
2022/10/19 11:41:38;;;;;;;;;;;16.80;99.90;;;;;;6116750;23;20364;-65
2022/10/19 11:44:23;;;;;;;;;;;16.80;99.90;;;;;;6117067;23;19928;-69
2022/10/19 11:46:48;;;;;;;;;;;16.60;99.90;;;;;;6116297;23;19925;-64
2022/10/19 11:49:23;;;;;;;;;;;16.50;99.90;;;;;;6115247;23;20344;-68
2022/10/19 11:51:52;;;;;;;;;;;16.60;99.90;;;;;;6115626;23;19925;-68
2022/10/19 11:54:30;;;;;;;;;;;16.50;99.90;;;;;;6115892;23;19935;-66
2022/10/19 11:56:59;;;;;;;;;;;16.40;99.90;;;;;;6116233;23;19971;-68
2022/10/19 11:59:27;;;;;;;;;;;16.80;99.90;;;;;;6116295;23;19924;-68
2022/10/19 12:01:57;;;;;;;;;;;16.70;99.90;;;;;;6116728;23;20019;-69
2022/10/19 12:04:30;;;;;;;;;;;16.40;99.90;;;;;;6117308;23;19931;-69
2022/10/19 12:06:56;;;;;;;;;;;16.30;99.90;;;;;;6116459;23;19929;-66
2022/10/19 12:09:27;;;;;;;;;;;15.90;99.90;;;;;;6115658;23;19932;-66
2022/10/19 12:12:05;;;;;;;;;;;15.90;99.90;;;;;;6115108;23;19980;-68
2022/10/19 12:14:34;;;;;;;;;;;15.60;99.90;;;;;;6116910;23;20339;-68
2022/10/19 12:17:06;;;;;;;;;;;15.60;99.90;;;;;;6116632;23;20030;-65
2022/10/19 12:19:36;;;;;;;;;;;15.50;99.90;;;;;;6115370;23;20023;-65
2022/10/19 12:22:03;;;;;;;;;;;15.50;99.90;;;;;;6114962;23;19944;-65
2022/10/19 12:24:29;;;;;;;;;;;15.50;99.90;;;;;;6115041;23;19925;-68
2022/10/19 12:26:56;;;;;;;;;;;15.40;99.90;;;;;;6113929;23;19963;-65
2022/10/19 12:29:24;;;;;;;;;;;15.40;99.90;;;;;;6113287;23;20295;-68
2022/10/19 12:31:51;;;;;;;;;;;15.40;99.90;;;;;;6114379;23;19932;-64
2022/10/19 12:34:35;;;;;;;;;;;15.20;99.90;;;;;;6114329;23;20263;-66
2022/10/19 12:37:07;;;;;;;;;;;15.20;99.90;;;;;;6112083;23;19925;-66
2022/10/19 12:39:41;;;;;;;;;;;15.20;99.90;;;;;;6114630;23;19924;-69
2022/10/19 12:42:09;;;;;;;;;;;15.10;99.90;;;;;;6115415;23;20362;-64
2022/10/19 12:44:37;;;;;;;;;;;14.90;99.90;;;;;;6115054;23;20394;-65
2022/10/19 12:47:22;;;;;;;;;;;15.00;99.90;;;;;;6115089;23;19932;-67
2022/10/19 12:49:49;;;;;;;;;;;15.10;99.90;;;;;;6115477;23;19978;-65
2022/10/19 12:52:34;;;;;;;;;;;15.10;99.90;;;;;;6114136;23;19925;-65
2022/10/19 12:55:11;;;;;;;;;;;15.30;99.90;;;;;;6114417;23;19978;-65
2022/10/19 12:57:38;;;;;;;;;;;15.30;99.90;;;;;;6114409;23;19928;-65
2022/10/19 13:00:23;;;;;;;;;;;15.40;99.90;;;;;;6113883;23;19932;-65
2022/10/19 13:03:00;;;;;;;;;;;15.50;99.90;;;;;;6113493;23;19929;-67
2022/10/19 13:05:27;;;;;;;;;;;15.50;99.90;;;;;;6113387;23;19936;-67
2022/10/19 13:07:53;;;;;;;;;;;15.50;99.90;;;;;;6113025;23;20021;-68
2022/10/19 13:10:21;;;;;;;;;;;15.70;99.90;;;;;;6113257;23;19925;-68
2022/10/19 13:12:47;;;;;;;;;;;15.90;99.90;;;;;;6112155;23;20023;-68
2022/10/19 13:15:31;;;;;;;;;;;15.50;99.90;;;;;;6114044;23;19961;-67
2022/10/19 13:17:56;;;;;;;;;;;15.40;99.90;;;;;;6113668;23;19929;-66
2022/10/19 13:20:24;;;;;;;;;;;15.20;99.90;;;;;;6113107;23;19935;-67
2022/10/19 13:22:58;;;;;;;;;;;15.90;99.90;;;;;;6113392;23;19925;-67
2022/10/19 13:25:30;;;;;;;;;;;17.30;99.90;;;;;;6113449;23;19925;-65
2022/10/19 13:28:00;;;;;;;;;;;16.90;99.90;;;;;;6112378;23;19929;-67
2022/10/19 13:30:34;;;;;;;;;;;16.00;99.90;;;;;;6113608;23;19929;-66
2022/10/19 13:33:19;;;;;;;;;;;15.60;99.90;;;;;;6113463;23;19932;-69
2022/10/19 13:35:45;;;;;;;;;;;15.30;99.90;;;;;;6114527;23;19935;-66
2022/10/19 13:38:13;;;;;;;;;;;15.10;99.90;;;;;;6111370;23;19929;-64
2022/10/19 13:40:48;;;;;;;;;;;15.10;99.90;;;;;;6113305;23;19925;-66
2022/10/19 13:43:18;;;;;;;;;;;15.20;99.90;;;;;;6113178;23;20343;-65
2022/10/19 13:45:52;;;;;;;;;;;15.10;99.90;;;;;;6114555;23;19925;-65
2022/10/19 13:48:23;;;;;;;;;;;15.20;99.90;;;;;;6113013;23;19924;-65
2022/10/19 13:50:56;;;;;;;;;;;15.00;99.90;;;;;;6114114;23;19932;-64
2022/10/19 13:53:38;;;;;;;;;;;14.90;99.90;;;;;;6114454;23;19925;-65
2022/10/19 13:56:12;;;;;;;;;;;14.90;99.90;;;;;;6113716;23;19924;-68
2022/10/19 13:59:01;;;;;;;;;;;15.10;99.90;;;;;;6111688;23;19982;-69
2022/10/19 14:01:33;;;;;;;;;;;15.10;99.90;;;;;;6114063;23;19925;-65
2022/10/19 14:04:17;;;;;;;;;;;15.30;99.90;;;;;;6113552;23;20298;-68
2022/10/19 14:06:42;;;;;;;;;;;15.30;99.90;;;;;;6113579;23;20004;-66
2022/10/19 14:09:15;;;;;;;;;;;15.40;99.90;;;;;;6113495;23;19960;-66
2022/10/19 14:11:43;;;;;;;;;;;15.20;99.90;;;;;;6111354;23;20395;-68
2022/10/19 14:14:12;;;;;;;;;;;15.10;99.90;;;;;;6111819;23;20236;-64
2022/10/19 14:16:52;;;;;;;;;;;14.90;99.90;;;;;;6113448;23;19993;-65
2022/10/19 14:19:26;;;;;;;;;;;14.80;99.90;;;;;;6114290;23;19988;-67
2022/10/19 14:21:55;;;;;;;;;;;14.70;99.90;;;;;;6114573;23;20237;-65
2022/10/19 14:24:26;;;;;;;;;;;14.70;99.90;;;;;;6112353;23;19932;-68
2022/10/19 14:26:52;;;;;;;;;;;14.60;99.90;;;;;;6114842;23;19924;-67
2022/10/19 14:29:18;;;;;;;;;;;14.60;99.90;;;;;;6114444;23;19932;-66
2022/10/19 14:31:44;;;;;;;;;;;14.60;99.90;;;;;;6111659;23;19925;-68